createdAt,value
2023-01-02T04:58:26.741Z,12.99
2023-01-02T05:09:22.037Z,13.07
2023-01-02T05:14:18.352Z,13.06
2023-01-02T05:19:41.344Z,13.07
2023-01-02T10:21:11.605Z,13.93
2023-01-02T11:19:29.968Z,13.98
2023-01-02T11:24:28.411Z,13.96
2023-01-02T11:29:33.052Z,13.93
2023-01-02T11:35:37.850Z,13.86
2023-01-02T12:05:16.181Z,12.89
2023-01-02T12:16:57.543Z,12.47
2023-01-02T12:22:51.667Z,12.41
2023-01-02T12:39:57.645Z,12.52
2023-01-02T12:56:14.213Z,12.47
2023-01-02T13:02:58.201Z,12.25
2023-01-02T13:14:11.365Z,12.14
2023-01-02T13:19:37.904Z,12.12
2023-01-02T13:25:14.175Z,11.98
2023-01-02T13:31:35.448Z,11.92
2023-01-02T13:36:52.567Z,11.88
2023-01-02T13:42:39.424Z,11.78
2023-01-02T13:49:02.361Z,11.71
2023-01-02T13:54:18.825Z,11.66
2023-01-02T13:59:42.701Z,11.63
2023-01-02T14:05:06.368Z,11.59
2023-01-02T14:10:24.208Z,11.59
2023-01-02T14:15:49.042Z,11.57
2023-01-02T14:21:25.468Z,11.56
2023-01-02T14:44:28.016Z,11.50
2023-01-02T14:50:09.576Z,11.44
2023-01-02T15:01:02.384Z,11.29
2023-01-02T15:06:33.092Z,11.21
2023-01-02T15:12:08.418Z,11.21
2023-01-02T15:23:06.927Z,11.19
2023-01-02T15:28:13.010Z,11.17
2023-01-02T15:39:02.283Z,11.17
2023-01-02T15:50:13.930Z,11.14
2023-01-02T15:55:25.837Z,11.11
2023-01-02T16:00:37.320Z,11.12
2023-01-02T17:09:30.998Z,11.17
2023-01-02T18:06:32.653Z,11.01
2023-01-02T18:44:42.835Z,11.03
2023-01-02T18:49:45.521Z,11.08
2023-01-02T18:54:43.827Z,11.07
2023-01-02T18:59:42.730Z,11.10
2023-01-02T19:04:40.261Z,11.07
2023-01-02T19:09:36.778Z,11.06
2023-01-02T19:14:38.159Z,11.04
2023-01-02T19:19:40.748Z,10.97
2023-01-02T19:24:37.416Z,10.92
2023-01-02T19:29:38.020Z,10.89
2023-01-02T19:34:43.283Z,10.82
2023-01-02T19:39:57.419Z,10.80
2023-01-02T19:44:57.760Z,10.74
2023-01-02T19:49:54.093Z,10.70
2023-01-02T19:54:52.311Z,10.67
2023-01-02T19:59:49.342Z,10.66
2023-01-02T20:04:46.137Z,10.64
2023-01-02T20:09:42.656Z,10.56
2023-01-02T20:14:39.142Z,10.46
2023-01-02T20:19:38.165Z,10.34
2023-01-02T20:36:43.346Z,10.00
2023-01-02T20:41:40.086Z,9.93
2023-01-02T20:46:39.072Z,9.84
2023-01-02T20:51:35.632Z,9.75
2023-01-02T20:56:32.174Z,9.67
2023-01-02T21:01:28.692Z,9.63
2023-01-02T21:06:25.208Z,9.60
2023-01-02T21:11:21.897Z,9.61
2023-01-02T21:16:18.372Z,9.69
2023-01-02T21:21:20.509Z,9.74
2023-01-02T21:26:19.210Z,9.70
2023-01-02T21:31:16.184Z,9.70
2023-01-02T21:36:12.652Z,9.74
2023-01-02T21:41:27.449Z,9.76
2023-01-02T21:46:23.923Z,9.79
2023-01-02T21:51:20.343Z,9.80
2023-01-02T21:56:16.781Z,9.77
2023-01-02T22:01:15.421Z,9.70
2023-01-02T22:06:11.888Z,9.58
2023-01-02T22:11:26.656Z,9.47
2023-01-02T22:16:23.168Z,9.33
2023-01-02T22:21:19.627Z,9.22
2023-01-02T22:26:15.962Z,9.13
2023-01-02T22:31:12.309Z,9.09
2023-01-02T22:36:08.709Z,9.04
2023-01-02T22:41:05.125Z,8.99
2023-01-02T22:46:04.498Z,8.91
2023-01-02T22:51:00.867Z,8.83
2023-01-02T22:55:57.416Z,8.75
2023-01-02T23:00:59.714Z,8.70
2023-01-02T23:05:57.502Z,8.64
2023-01-02T23:10:53.917Z,8.55
2023-01-02T23:16:08.817Z,8.51
2023-01-02T23:21:08.334Z,8.54
2023-01-02T23:26:05.277Z,8.57
2023-01-02T23:31:01.644Z,8.59
2023-01-02T23:35:58.011Z,8.63
2023-01-02T23:40:54.398Z,8.68
2023-01-02T23:45:50.905Z,8.72
2023-01-02T23:50:47.283Z,8.76
2023-01-02T23:55:43.662Z,8.80
